Time;durP1;ratioP1;P1;durP2;ratioP2;P2;SDS_P1;SDS_P2;PMS_P1;PMS_P2;Temp;Humidity;BMP_temperature;BMP_pressure;BME280_temperature;BME280_humidity;BME280_pressure;Samples;Min_cycle;Max_cycle;Signal;HPM_P1;HPM_P2
2021/10/10 00:02:18;;;;;;;;;;;;;;;;;;5116571;28;19931;-72
2021/10/10 00:04:45;;;;;;;;;;;;;;;;;;5116455;28;20408;-72
2021/10/10 00:07:11;;;;;;;;;;;;;;;;;;5125461;28;19927;-72
2021/10/10 00:09:37;;;;;;;;;;;;;;;;;;5141936;28;20383;-72
2021/10/10 00:12:03;;;;;;;;;;;;;;;;;;5140533;28;19975;-73
2021/10/10 00:14:30;;;;;;;;;;;;;;;;;;5116137;28;19923;-72
2021/10/10 00:16:56;;;;;;;;;;;;;;;;;;5115439;28;20374;-72
2021/10/10 00:19:22;;;;;;;;;;;;;;;;;;5115482;28;19931;-72
2021/10/10 00:21:49;;;;;;;;;;;;;;;;;;5116042;28;19931;-72
2021/10/10 00:24:15;;;;;;;;;;;;;;;;;;5115417;28;20317;-73
2021/10/10 00:26:41;;;;;;;;;;;;;;;;;;5115584;28;19924;-73
2021/10/10 00:29:07;;;;;;;;;;;;;;;;;;5115148;28;19924;-73
2021/10/10 00:31:34;;;;;;;;;;;;;;;;;;5115343;28;20378;-72
2021/10/10 00:34:00;;;;;;;;;;;;;;;;;;5115232;28;19930;-72
2021/10/10 00:36:26;;;;;;;;;;;;;;;;;;5115743;28;19931;-73
2021/10/10 00:38:53;;;;;;;;;;;;;;;;;;5115323;28;20397;-72
2021/10/10 00:41:19;;;;;;;;;;;;;;;;;;5115048;28;19930;-72
2021/10/10 00:43:45;;;;;;;;;;;;;;;;;;5115568;28;19928;-73
2021/10/10 00:46:12;;;;;;;;;;;;;;;;;;5115017;28;19938;-72
2021/10/10 00:48:38;;;;;;;;;;;;;;;;;;5115544;28;19928;-72
2021/10/10 00:51:04;;;;;;;;;;;;;;;;;;5114982;28;20374;-72
2021/10/10 00:53:30;;;;;;;;;;;;;;;;;;5115330;28;19931;-72
2021/10/10 00:55:57;;;;;;;;;;;;;;;;;;5114782;28;19946;-72
2021/10/10 00:58:23;;;;;;;;;;;;;;;;;;5115009;28;19936;-72
2021/10/10 01:00:49;;;;;;;;;;;;;;;;;;5115242;28;19947;-72
2021/10/10 01:03:16;;;;;;;;;;;;;;;;;;5114619;28;19935;-72
2021/10/10 01:05:42;;;;;;;;;;;;;;;;;;5114844;28;19924;-72
2021/10/10 01:08:08;;;;;;;;;;;;;;;;;;5114430;28;19930;-72
2021/10/10 01:10:35;;;;;;;;;;;;;;;;;;5115021;28;19931;-72
2021/10/10 01:13:01;;;;;;;;;;;;;;;;;;5114440;28;19931;-72
2021/10/10 01:15:27;;;;;;;;;;;;;;;;;;5114960;28;19924;-71
2021/10/10 01:17:54;;;;;;;;;;;;;;;;;;5114896;28;20314;-71
2021/10/10 01:20:20;;;;;;;;;;;;;;;;;;5114170;28;19924;-74
2021/10/10 01:22:46;;;;;;;;;;;;;;;;;;5114663;28;19934;-74
2021/10/10 01:25:12;;;;;;;;;;;;;;;;;;5114561;28;19923;-74
2021/10/10 01:27:39;;;;;;;;;;;;;;;;;;5114419;28;19924;-75
2021/10/10 01:30:05;;;;;;;;;;;;;;;;;;5114448;28;19931;-75
2021/10/10 01:32:31;;;;;;;;;;;;;;;;;;5114610;28;19924;-74
2021/10/10 01:34:58;;;;;;;;;;;;;;;;;;5114145;28;20007;-74
2021/10/10 01:37:25;;;;;;;;;;;;;;;;;;5114234;28;19931;-71
2021/10/10 01:39:51;;;;;;;;;;;;;;;;;;5113707;28;19930;-71
2021/10/10 01:42:18;;;;;;;;;;;;;;;;;;5113688;28;19924;-71
2021/10/10 01:44:44;;;;;;;;;;;;;;;;;;5114313;28;19946;-71
2021/10/10 01:47:10;;;;;;;;;;;;;;;;;;5113781;28;19924;-71
2021/10/10 01:49:36;;;;;;;;;;;;;;;;;;5114242;28;19934;-71
2021/10/10 01:52:03;;;;;;;;;;;;;;;;;;5113752;28;20386;-71
2021/10/10 01:54:29;;;;;;;;;;;;;;;;;;5114067;28;19924;-71
2021/10/10 01:56:55;;;;;;;;;;;;;;;;;;5113844;28;20283;-72
2021/10/10 01:59:22;;;;;;;;;;;;;;;;;;5113732;28;19930;-72
2021/10/10 02:01:48;;;;;;;;;;;;;;;;;;5113837;28;19923;-71
2021/10/10 02:04:14;;;;;;;;;;;;;;;;;;5113479;28;20374;-71
2021/10/10 02:06:41;;;;;;;;;;;;;;;;;;5113683;28;19924;-71
2021/10/10 02:09:07;;;;;;;;;;;;;;;;;;5113571;28;19973;-71
2021/10/10 02:11:33;;;;;;;;;;;;;;;;;;5113612;28;20293;-71
2021/10/10 02:14:00;;;;;;;;;;;;;;;;;;5113220;28;19924;-71
2021/10/10 02:16:26;;;;;;;;;;;;;;;;;;5113783;28;19924;-71
2021/10/10 02:18:53;;;;;;;;;;;;;;;;;;5113338;28;19936;-71
2021/10/10 02:21:19;;;;;;;;;;;;;;;;;;5113469;28;19924;-71
2021/10/10 02:23:45;;;;;;;;;;;;;;;;;;5113203;28;20367;-71
2021/10/10 02:26:12;;;;;;;;;;;;;;;;;;5113114;28;19924;-71
2021/10/10 02:28:38;;;;;;;;;;;;;;;;;;5113620;28;19935;-71
2021/10/10 02:31:04;;;;;;;;;;;;;;;;;;5113079;28;19930;-71
2021/10/10 02:33:31;;;;;;;;;;;;;;;;;;5113582;28;19931;-71
2021/10/10 02:35:57;;;;;;;;;;;;;;;;;;5113148;28;19950;-71
2021/10/10 02:38:23;;;;;;;;;;;;;;;;;;5113122;28;20389;-71
2021/10/10 02:40:50;;;;;;;;;;;;;;;;;;5113450;28;19931;-70
2021/10/10 02:43:16;;;;;;;;;;;;;;;;;;5113188;28;20304;-72
2021/10/10 02:45:42;;;;;;;;;;;;;;;;;;5113106;28;19939;-71
2021/10/10 02:48:08;;;;;;;;;;;;;;;;;;5112684;28;19924;-71
2021/10/10 02:50:35;;;;;;;;;;;;;;;;;;5113298;28;19924;-71
2021/10/10 02:53:01;;;;;;;;;;;;;;;;;;5112586;28;19923;-71
2021/10/10 02:55:27;;;;;;;;;;;;;;;;;;5112875;28;19928;-71
2021/10/10 02:57:54;;;;;;;;;;;;;;;;;;5112917;28;20069;-71
2021/10/10 03:00:20;;;;;;;;;;;;;;;;;;5112442;28;19931;-71
2021/10/10 03:02:46;;;;;;;;;;;;;;;;;;5113186;28;19924;-71
2021/10/10 03:05:12;;;;;;;;;;;;;;;;;;5112953;28;19924;-71
2021/10/10 03:07:39;;;;;;;;;;;;;;;;;;5112897;28;19923;-71
2021/10/10 03:10:05;;;;;;;;;;;;;;;;;;5112842;28;19972;-71
2021/10/10 03:12:31;;;;;;;;;;;;;;;;;;5112812;28;19924;-71
2021/10/10 03:14:58;;;;;;;;;;;;;;;;;;5112817;28;19935;-72
2021/10/10 03:17:24;;;;;;;;;;;;;;;;;;5112804;28;20298;-71
2021/10/10 03:19:50;;;;;;;;;;;;;;;;;;5112700;28;19931;-71
2021/10/10 03:22:17;;;;;;;;;;;;;;;;;;5112497;28;20271;-72
2021/10/10 03:24:43;;;;;;;;;;;;;;;;;;5112609;28;19924;-71
2021/10/10 03:27:09;;;;;;;;;;;;;;;;;;5112742;28;19923;-71
2021/10/10 03:29:36;;;;;;;;;;;;;;;;;;5112741;28;20362;-71
2021/10/10 03:32:02;;;;;;;;;;;;;;;;;;5112393;28;19924;-72
2021/10/10 03:34:28;;;;;;;;;;;;;;;;;;5112813;28;19928;-71
2021/10/10 03:36:54;;;;;;;;;;;;;;;;;;5112559;28;19923;-71
2021/10/10 03:39:21;;;;;;;;;;;;;;;;;;5112502;28;19931;-71
2021/10/10 03:41:47;;;;;;;;;;;;;;;;;;5112445;28;20289;-71
2021/10/10 03:44:13;;;;;;;;;;;;;;;;;;5112596;28;19924;-71
2021/10/10 03:46:40;;;;;;;;;;;;;;;;;;5112601;28;19951;-71
2021/10/10 03:49:06;;;;;;;;;;;;;;;;;;5112234;28;19924;-72
2021/10/10 03:51:32;;;;;;;;;;;;;;;;;;5112696;28;19931;-71
2021/10/10 03:56:42;;;;;;;;;;;;;;;;;;5097844;28;19928;-71
2021/10/10 03:59:08;;;;;;;;;;;;;;;;;;5112401;28;19928;-71
2021/10/10 04:01:37;;;;;;;;;;;;;;;;;;5112613;28;19946;-72
2021/10/10 04:04:03;;;;;;;;;;;;;;;;;;5113555;28;19947;-71
2021/10/10 04:06:30;;;;;;;;;;;;;;;;;;5115952;28;19930;-71
2021/10/10 04:08:56;;;;;;;;;;;;;;;;;;5116541;28;19939;-71
2021/10/10 04:11:22;;;;;;;;;;;;;;;;;;5116119;28;20374;-71
2021/10/10 04:13:48;;;;;;;;;;;;;;;;;;5116657;28;19928;-70
2021/10/10 04:16:15;;;;;;;;;;;;;;;;;;5138254;28;20336;-70
2021/10/10 04:18:41;;;;;;;;;;;;;;;;;;5139461;28;19924;-71
2021/10/10 04:21:07;;;;;;;;;;;;;;;;;;5125511;28;20366;-71
2021/10/10 04:23:34;;;;;;;;;;;;;;;;;;5115823;28;20172;-71
2021/10/10 04:26:00;;;;;;;;;;;;;;;;;;5115729;28;19939;-71
2021/10/10 04:28:26;;;;;;;;;;;;;;;;;;5115543;28;20374;-71
2021/10/10 04:30:52;;;;;;;;;;;;;;;;;;5115552;28;20005;-71
2021/10/10 04:33:19;;;;;;;;;;;;;;;;;;5115584;28;19934;-71
2021/10/10 04:35:48;;;;;;;;;;;;;;;;;;5115389;28;20378;-71
2021/10/10 04:38:14;;;;;;;;;;;;;;;;;;5115119;28;19979;-71
2021/10/10 04:40:41;;;;;;;;;;;;;;;;;;5115243;28;20298;-71
2021/10/10 04:43:07;;;;;;;;;;;;;;;;;;5114998;28;19924;-71
2021/10/10 04:45:33;;;;;;;;;;;;;;;;;;5115294;28;20432;-71
2021/10/10 04:48:00;;;;;;;;;;;;;;;;;;5115240;28;19924;-72
2021/10/10 04:50:26;;;;;;;;;;;;;;;;;;5115452;28;20293;-72
2021/10/10 04:52:52;;;;;;;;;;;;;;;;;;5115000;28;19923;-72
2021/10/10 04:55:19;;;;;;;;;;;;;;;;;;5115170;28;19927;-72
2021/10/10 04:57:45;;;;;;;;;;;;;;;;;;5114945;28;19924;-72
2021/10/10 05:00:11;;;;;;;;;;;;;;;;;;5114722;28;19924;-72
2021/10/10 05:02:38;;;;;;;;;;;;;;;;;;5115240;28;19934;-72
2021/10/10 05:05:04;;;;;;;;;;;;;;;;;;5114561;28;19924;-72
2021/10/10 05:07:30;;;;;;;;;;;;;;;;;;5114998;28;19923;-72
2021/10/10 05:09:57;;;;;;;;;;;;;;;;;;5114592;28;20450;-72
2021/10/10 05:12:23;;;;;;;;;;;;;;;;;;5114779;28;19931;-72
2021/10/10 05:14:49;;;;;;;;;;;;;;;;;;5115016;28;19928;-72
2021/10/10 05:17:16;;;;;;;;;;;;;;;;;;5114317;28;20491;-73
2021/10/10 05:19:42;;;;;;;;;;;;;;;;;;5114525;28;19924;-72
2021/10/10 05:22:08;;;;;;;;;;;;;;;;;;5114651;28;19923;-73
2021/10/10 05:24:34;;;;;;;;;;;;;;;;;;5114525;28;20382;-72
2021/10/10 05:27:01;;;;;;;;;;;;;;;;;;5114023;28;20429;-72
2021/10/10 05:29:27;;;;;;;;;;;;;;;;;;5114710;28;19927;-72
2021/10/10 05:31:54;;;;;;;;;;;;;;;;;;5114411;28;19931;-72
2021/10/10 05:34:20;;;;;;;;;;;;;;;;;;5114257;28;19924;-73
2021/10/10 05:36:46;;;;;;;;;;;;;;;;;;5114102;28;20382;-72
2021/10/10 05:39:13;;;;;;;;;;;;;;;;;;5114178;28;19935;-72
2021/10/10 05:41:39;;;;;;;;;;;;;;;;;;5114467;28;19930;-72
2021/10/10 05:44:05;;;;;;;;;;;;;;;;;;5113899;28;20306;-72
2021/10/10 05:46:32;;;;;;;;;;;;;;;;;;5114052;28;19924;-72
2021/10/10 05:48:58;;;;;;;;;;;;;;;;;;5113971;28;19924;-72
2021/10/10 05:51:24;;;;;;;;;;;;;;;;;;5114259;28;19924;-72
2021/10/10 05:53:50;;;;;;;;;;;;;;;;;;5113915;28;19924;-72
2021/10/10 05:56:18;;;;;;;;;;;;;;;;;;5113742;28;19928;-72
2021/10/10 05:58:45;;;;;;;;;;;;;;;;;;5113764;28;19970;-72
2021/10/10 06:01:11;;;;;;;;;;;;;;;;;;5113443;28;19924;-73
2021/10/10 06:03:37;;;;;;;;;;;;;;;;;;5113963;28;19923;-73
2021/10/10 06:06:04;;;;;;;;;;;;;;;;;;5113511;28;20398;-73
2021/10/10 06:08:30;;;;;;;;;;;;;;;;;;5113671;28;19928;-72
2021/10/10 06:10:56;;;;;;;;;;;;;;;;;;5113712;28;19923;-72
2021/10/10 06:13:23;;;;;;;;;;;;;;;;;;5113821;28;19924;-73
2021/10/10 06:15:50;;;;;;;;;;;;;;;;;;5113887;28;19923;-73
2021/10/10 06:18:16;;;;;;;;;;;;;;;;;;5113334;28;19934;-72
2021/10/10 06:20:42;;;;;;;;;;;;;;;;;;5113700;28;19932;-73
2021/10/10 06:23:09;;;;;;;;;;;;;;;;;;5113496;28;20309;-73
2021/10/10 06:25:35;;;;;;;;;;;;;;;;;;5113505;28;19930;-73
2021/10/10 06:28:01;;;;;;;;;;;;;;;;;;5112912;28;19924;-73
2021/10/10 06:30:28;;;;;;;;;;;;;;;;;;5113626;28;19924;-73
2021/10/10 06:32:54;;;;;;;;;;;;;;;;;;5113221;28;20271;-73
2021/10/10 06:35:20;;;;;;;;;;;;;;;;;;5112908;28;19927;-73
2021/10/10 06:37:47;;;;;;;;;;;;;;;;;;5113441;28;19931;-73
2021/10/10 06:40:13;;;;;;;;;;;;;;;;;;5112870;28;20374;-73
2021/10/10 06:42:39;;;;;;;;;;;;;;;;;;5113197;28;19924;-73
2021/10/10 06:45:05;;;;;;;;;;;;;;;;;;5113070;28;19924;-74
2021/10/10 06:47:32;;;;;;;;;;;;;;;;;;5113131;28;20290;-80
2021/10/10 06:49:58;;;;;;;;;;;;;;;;;;5112747;28;19930;-78
2021/10/10 06:52:24;;;;;;;;;;;;;;;;;;5113032;28;19924;-76
2021/10/10 06:54:51;;;;;;;;;;;;;;;;;;5113676;28;19935;-78
2021/10/10 06:57:17;;;;;;;;;;;;;;;;;;5114260;28;20401;-79
2021/10/10 06:59:43;;;;;;;;;;;;;;;;;;5113163;28;19924;-78
2021/10/10 07:02:10;;;;;;;;;;;;;;;;;;5113053;28;19924;-78
2021/10/10 07:04:36;;;;;;;;;;;;;;;;;;5112833;28;20417;-77
2021/10/10 07:07:02;;;;;;;;;;;;;;;;;;5112903;28;19924;-77
2021/10/10 07:09:28;;;;;;;;;;;;;;;;;;5113195;28;19930;-77
2021/10/10 07:11:55;;;;;;;;;;;;;;;;;;5113164;28;20285;-77
2021/10/10 07:14:21;;;;;;;;;;;;;;;;;;5112573;28;19927;-78
2021/10/10 07:16:47;;;;;;;;;;;;;;;;;;5112894;28;19924;-78
2021/10/10 07:19:21;;;;;;;;;;;;;;;;;;5112536;28;20324;-78
2021/10/10 07:21:56;;;;;;;;;;;;;;;;;;5112681;28;19927;-72
2021/10/10 07:27:06;;;;;;;;;;;;;;;;;;5112477;28;19965;-71
2021/10/10 07:29:32;;;;;;;;;;;;;;;;;;5110887;28;19924;-72
2021/10/10 07:31:58;;;;;;;;;;;;;;;;;;5112288;28;20347;-71
2021/10/10 07:34:24;;;;;;;;;;;;;;;;;;5111005;28;19923;-71
2021/10/10 07:36:51;;;;;;;;;;;;;;;;;;5112511;28;19928;-71
2021/10/10 07:39:17;;;;;;;;;;;;;;;;;;5113727;28;20301;-73
2021/10/10 07:41:45;;;;;;;;;;;;;;;;;;5116374;28;19923;-72
2021/10/10 07:44:13;;;;;;;;;;;;;;;;;;5116135;28;19976;-72
2021/10/10 07:46:40;;;;;;;;;;;;;;;;;;5116372;28;20374;-74
2021/10/10 07:49:08;;;;;;;;;;;;;;;;;;5116339;28;19923;-74
2021/10/10 07:51:34;;;;;;;;;;;;;;;;;;5116287;28;19930;-72
2021/10/10 07:54:00;;;;;;;;;;;;;;;;;;5116206;28;19930;-72
2021/10/10 07:56:26;;;;;;;;;;;;;;;;;;5115985;28;19924;-72
2021/10/10 07:58:53;;;;;;;;;;;;;;;;;;5116071;28;19924;-72
2021/10/10 08:01:20;;;;;;;;;;;;;;;;;;5116124;28;19924;-72
2021/10/10 08:03:46;;;;;;;;;;;;;;;;;;5116130;28;19924;-72
2021/10/10 08:06:12;;;;;;;;;;;;;;;;;;5115723;28;20378;-73
2021/10/10 08:08:39;;;;;;;;;;;;;;;;;;5115808;28;19927;-72
2021/10/10 08:11:05;;;;;;;;;;;;;;;;;;5116065;28;19924;-73
2021/10/10 08:13:31;;;;;;;;;;;;;;;;;;5115854;28;20393;-72
2021/10/10 08:15:58;;;;;;;;;;;;;;;;;;5115558;28;19924;-73
2021/10/10 08:18:24;;;;;;;;;;;;;;;;;;5116091;28;20025;-72
2021/10/10 08:20:50;;;;;;;;;;;;;;;;;;5115786;28;19928;-72
2021/10/10 08:23:17;;;;;;;;;;;;;;;;;;5115640;28;19928;-72
2021/10/10 08:25:43;;;;;;;;;;;;;;;;;;5116047;28;19924;-72
2021/10/10 08:28:09;;;;;;;;;;;;;;;;;;5116323;28;19924;-71
2021/10/10 08:30:36;;;;;;;;;;;;;;;;;;5123299;28;19914;-72
2021/10/10 08:33:02;;;;;;;;;;;;;;;;;;5141079;28;20001;-71
2021/10/10 08:35:28;;;;;;;;;;;;;;;;;;5141206;28;19947;-71
2021/10/10 08:37:55;;;;;;;;;;;;;;;;;;5121574;28;20281;-72
2021/10/10 08:40:21;;;;;;;;;;;;;;;;;;5115459;28;19924;-71
2021/10/10 08:42:48;;;;;;;;;;;;;;;;;;5115265;28;20374;-71
2021/10/10 08:45:17;;;;;;;;;;;;;;;;;;5115309;28;19992;-71
2021/10/10 08:47:44;;;;;;;;;;;;;;;;;;5115462;28;19924;-71
2021/10/10 08:50:10;;;;;;;;;;;;;;;;;;5114873;28;19951;-72
2021/10/10 08:52:36;;;;;;;;;;;;;;;;;;5115165;28;20381;-72
2021/10/10 08:55:05;;;;;;;;;;;;;;;;;;5114792;28;19927;-77
2021/10/10 08:57:31;;;;;;;;;;;;;;;;;;5115466;28;19923;-77
2021/10/10 09:00:04;;;;;;;;;;;;;;;;;;5114703;28;19923;-78
2021/10/10 09:02:32;;;;;;;;;;;;;;;;;;5115009;28;20366;-74
2021/10/10 09:04:58;;;;;;;;;;;;;;;;;;5114923;28;20018;-71
2021/10/10 09:07:24;;;;;;;;;;;;;;;;;;5114856;28;19924;-73
2021/10/10 09:09:51;;;;;;;;;;;;;;;;;;5114803;28;19924;-77
2021/10/10 09:12:17;;;;;;;;;;;;;;;;;;5114725;28;19934;-74
2021/10/10 09:14:43;;;;;;;;;;;;;;;;;;5115091;28;20014;-74
2021/10/10 09:17:10;;;;;;;;;;;;;;;;;;5114819;28;19928;-76
2021/10/10 09:19:36;;;;;;;;;;;;;;;;;;5114966;28;19992;-71
2021/10/10 09:22:03;;;;;;;;;;;;;;;;;;5114332;28;20385;-72
2021/10/10 09:24:29;;;;;;;;;;;;;;;;;;5114511;28;19930;-72
2021/10/10 09:26:55;;;;;;;;;;;;;;;;;;5114855;28;19930;-72
2021/10/10 09:29:22;;;;;;;;;;;;;;;;;;5114792;28;19924;-72
2021/10/10 09:31:48;;;;;;;;;;;;;;;;;;5114330;28;20525;-72
2021/10/10 09:34:15;;;;;;;;;;;;;;;;;;5114350;28;19928;-72
2021/10/10 09:36:41;;;;;;;;;;;;;;;;;;5114642;28;19923;-72
2021/10/10 09:39:10;;;;;;;;;;;;;;;;;;5114076;27;19930;-73
2021/10/10 09:41:40;;;;;;;;;;;;;;;;;;5114434;28;19927;-73
2021/10/10 09:44:09;;;;;;;;;;;;;;;;;;5113977;28;20015;-72
2021/10/10 09:46:38;;;;;;;;;;;;;;;;;;5114314;28;19972;-73
2021/10/10 09:49:04;;;;;;;;;;;;;;;;;;5114087;28;19985;-72
2021/10/10 09:51:30;;;;;;;;;;;;;;;;;;5113915;28;20274;-72
2021/10/10 09:53:57;;;;;;;;;;;;;;;;;;5113629;28;19923;-72
2021/10/10 09:56:23;;;;;;;;;;;;;;;;;;5114035;28;19928;-72
2021/10/10 09:58:49;;;;;;;;;;;;;;;;;;5113839;28;20385;-72
2021/10/10 10:01:15;;;;;;;;;;;;;;;;;;5112830;28;19923;-72
2021/10/10 10:03:42;;;;;;;;;;;;;;;;;;5114014;28;20281;-72
2021/10/10 10:06:08;;;;;;;;;;;;;;;;;;5113607;28;19923;-73
2021/10/10 10:08:34;;;;;;;;;;;;;;;;;;5113881;28;19947;-73
2021/10/10 10:11:01;;;;;;;;;;;;;;;;;;5113399;28;19931;-73
2021/10/10 10:13:27;;;;;;;;;;;;;;;;;;5114026;28;19931;-73
2021/10/10 10:15:53;;;;;;;;;;;;;;;;;;5113702;28;19950;-72
2021/10/10 10:18:20;;;;;;;;;;;;;;;;;;5113304;28;19930;-72
2021/10/10 10:20:46;;;;;;;;;;;;;;;;;;5113649;28;19924;-73
2021/10/10 10:23:12;;;;;;;;;;;;;;;;;;5113108;28;20381;-73
2021/10/10 10:25:38;;;;;;;;;;;;;;;;;;5113366;28;19927;-73
2021/10/10 10:28:05;;;;;;;;;;;;;;;;;;5113306;28;19946;-72
2021/10/10 10:30:31;;;;;;;;;;;;;;;;;;5113613;28;19977;-73
2021/10/10 10:32:57;;;;;;;;;;;;;;;;;;5112932;28;19924;-73
2021/10/10 10:35:24;;;;;;;;;;;;;;;;;;5113125;28;19928;-72
2021/10/10 10:37:50;;;;;;;;;;;;;;;;;;5113444;28;19923;-73
2021/10/10 10:40:17;;;;;;;;;;;;;;;;;;5113029;28;20487;-73
2021/10/10 10:42:43;;;;;;;;;;;;;;;;;;5112948;28;19931;-73
2021/10/10 10:45:09;;;;;;;;;;;;;;;;;;5113109;28;19947;-73
2021/10/10 10:47:36;;;;;;;;;;;;;;;;;;5112960;28;20369;-73
2021/10/10 10:50:04;;;;;;;;;;;;;;;;;;5112690;28;19924;-73
2021/10/10 10:52:30;;;;;;;;;;;;;;;;;;5113341;28;19923;-73
2021/10/10 10:54:57;;;;;;;;;;;;;;;;;;5112797;28;19924;-73
2021/10/10 10:57:23;;;;;;;;;;;;;;;;;;5112611;28;19928;-73
2021/10/10 10:59:50;;;;;;;;;;;;;;;;;;5113322;28;19923;-73
2021/10/10 11:02:16;;;;;;;;;;;;;;;;;;5113106;28;20409;-72
2021/10/10 11:04:42;;;;;;;;;;;;;;;;;;5113042;28;20024;-73
2021/10/10 11:07:09;;;;;;;;;;;;;;;;;;5113009;28;19967;-73
2021/10/10 11:09:35;;;;;;;;;;;;;;;;;;5112751;28;20301;-73
2021/10/10 11:12:01;;;;;;;;;;;;;;;;;;5112663;28;19938;-73
2021/10/10 11:14:29;;;;;;;;;;;;;;;;;;5116733;28;19930;-73
2021/10/10 11:16:55;;;;;;;;;;;;;;;;;;5117279;28;20324;-72
2021/10/10 11:19:21;;;;;;;;;;;;;;;;;;5117098;28;19924;-77
2021/10/10 11:21:48;;;;;;;;;;;;;;;;;;5116828;28;19924;-75
2021/10/10 11:24:18;;;;;;;;;;;;;;;;;;5116749;28;19928;-71
2021/10/10 11:26:45;;;;;;;;;;;;;;;;;;5116825;28;20376;-73
2021/10/10 11:29:11;;;;;;;;;;;;;;;;;;5116469;28;19924;-69
2021/10/10 11:31:37;;;;;;;;;;;;;;;;;;5117116;28;19948;-73
2021/10/10 11:34:04;;;;;;;;;;;;;;;;;;5116407;28;20393;-74
2021/10/10 11:36:30;;;;;;;;;;;;;;;;;;5116619;28;19924;-73
2021/10/10 11:38:56;;;;;;;;;;;;;;;;;;5116975;28;19930;-74
2021/10/10 11:41:23;;;;;;;;;;;;;;;;;;5116507;28;20397;-73
2021/10/10 11:43:49;;;;;;;;;;;;;;;;;;5116756;28;19923;-73
2021/10/10 11:46:20;;;;;;;;;;;;;;;;;;5116493;28;19930;-73
2021/10/10 11:48:48;;;;;;;;;;;;;;;;;;5116934;28;19931;-73
2021/10/10 11:51:14;;;;;;;;;;;;;;;;;;5116085;28;19935;-72
2021/10/10 11:53:44;;;;;;;;;;;;;;;;;;5116688;28;19930;-73
2021/10/10 11:56:10;;;;;;;;;;;;;;;;;;5115964;28;19931;-72
2021/10/10 11:58:36;;;;;;;;;;;;;;;;;;5116560;28;19938;-73
2021/10/10 12:01:03;;;;;;;;;;;;;;;;;;5115910;28;20386;-72
2021/10/10 12:03:29;;;;;;;;;;;;;;;;;;5116127;28;19923;-73
2021/10/10 12:05:55;;;;;;;;;;;;;;;;;;5115887;28;19923;-73
2021/10/10 12:08:22;;;;;;;;;;;;;;;;;;5116022;28;19966;-76
2021/10/10 12:10:49;;;;;;;;;;;;;;;;;;5116020;28;19930;-73
2021/10/10 12:13:15;;;;;;;;;;;;;;;;;;5115720;28;19924;-73
2021/10/10 12:15:41;;;;;;;;;;;;;;;;;;5116261;28;19930;-74
2021/10/10 12:18:07;;;;;;;;;;;;;;;;;;5115523;28;20310;-74
2021/10/10 12:20:34;;;;;;;;;;;;;;;;;;5116017;28;19927;-73
2021/10/10 12:23:00;;;;;;;;;;;;;;;;;;5115777;28;19931;-72
2021/10/10 12:25:26;;;;;;;;;;;;;;;;;;5115003;28;20289;-74
2021/10/10 12:27:53;;;;;;;;;;;;;;;;;;5115574;28;19938;-73
2021/10/10 12:30:19;;;;;;;;;;;;;;;;;;5115318;28;19930;-73
2021/10/10 12:32:45;;;;;;;;;;;;;;;;;;5115977;28;19931;-79
2021/10/10 12:35:15;;;;;;;;;;;;;;;;;;5115905;28;20279;-72
2021/10/10 12:37:41;;;;;;;;;;;;;;;;;;5116020;28;19923;-72
2021/10/10 12:40:07;;;;;;;;;;;;;;;;;;5128139;28;19914;-72
2021/10/10 12:42:34;;;;;;;;;;;;;;;;;;5140876;28;20003;-73
2021/10/10 12:45:00;;;;;;;;;;;;;;;;;;5138729;28;19980;-72
2021/10/10 12:47:26;;;;;;;;;;;;;;;;;;5115839;28;19939;-72
2021/10/10 12:49:53;;;;;;;;;;;;;;;;;;5115305;28;20321;-73
2021/10/10 12:52:19;;;;;;;;;;;;;;;;;;5114875;28;19924;-73
2021/10/10 12:54:46;;;;;;;;;;;;;;;;;;5115384;28;19924;-73
2021/10/10 12:57:13;;;;;;;;;;;;;;;;;;5114891;28;20355;-73
2021/10/10 12:59:40;;;;;;;;;;;;;;;;;;5115050;28;19924;-73
2021/10/10 13:02:06;;;;;;;;;;;;;;;;;;5114486;28;19973;-74
2021/10/10 13:04:33;;;;;;;;;;;;;;;;;;5115042;28;20019;-71
2021/10/10 13:06:59;;;;;;;;;;;;;;;;;;5115283;28;19931;-73
2021/10/10 13:09:27;;;;;;;;;;;;;;;;;;5114892;28;20278;-72
2021/10/10 13:11:54;;;;;;;;;;;;;;;;;;5115168;28;19924;-73
2021/10/10 13:14:21;;;;;;;;;;;;;;;;;;5114694;28;19989;-73
2021/10/10 13:16:47;;;;;;;;;;;;;;;;;;5114684;28;20378;-73
2021/10/10 13:19:13;;;;;;;;;;;;;;;;;;5114462;28;19924;-73
2021/10/10 13:21:40;;;;;;;;;;;;;;;;;;5114365;28;19949;-73
2021/10/10 13:24:06;;;;;;;;;;;;;;;;;;5114369;28;19932;-77
2021/10/10 13:26:32;;;;;;;;;;;;;;;;;;5114817;28;19923;-71
2021/10/10 13:28:59;;;;;;;;;;;;;;;;;;5114235;28;20374;-71
2021/10/10 13:31:25;;;;;;;;;;;;;;;;;;5114475;28;19935;-76
2021/10/10 13:33:51;;;;;;;;;;;;;;;;;;5114642;28;19924;-71
2021/10/10 13:36:17;;;;;;;;;;;;;;;;;;5113127;28;19924;-75
2021/10/10 13:38:44;;;;;;;;;;;;;;;;;;5114282;28;19924;-75
2021/10/10 13:41:10;;;;;;;;;;;;;;;;;;5114219;28;19923;-71
2021/10/10 13:43:36;;;;;;;;;;;;;;;;;;5114165;28;19923;-75
2021/10/10 13:46:04;;;;;;;;;;;;;;;;;;5113962;28;19931;-74
2021/10/10 13:48:31;;;;;;;;;;;;;;;;;;5114405;28;19937;-71
2021/10/10 13:50:57;;;;;;;;;;;;;;;;;;5113831;28;19930;-73
2021/10/10 13:53:23;;;;;;;;;;;;;;;;;;5114200;28;19924;-73
2021/10/10 13:55:50;;;;;;;;;;;;;;;;;;5114077;28;20289;-73
2021/10/10 13:58:17;;;;;;;;;;;;;;;;;;5113693;28;19924;-70
2021/10/10 14:00:43;;;;;;;;;;;;;;;;;;5114190;28;20006;-73
2021/10/10 14:03:10;;;;;;;;;;;;;;;;;;5113610;28;19930;-75
2021/10/10 14:05:36;;;;;;;;;;;;;;;;;;5114050;28;20010;-73
2021/10/10 14:08:02;;;;;;;;;;;;;;;;;;5113361;28;19924;-72
2021/10/10 14:10:28;;;;;;;;;;;;;;;;;;5113892;28;19924;-71
2021/10/10 14:12:55;;;;;;;;;;;;;;;;;;5116080;28;19935;-71
2021/10/10 14:15:21;;;;;;;;;;;;;;;;;;5113547;28;19979;-76
2021/10/10 14:17:47;;;;;;;;;;;;;;;;;;5113544;28;19924;-72
2021/10/10 14:20:14;;;;;;;;;;;;;;;;;;5113510;28;19947;-72
2021/10/10 14:22:40;;;;;;;;;;;;;;;;;;5113296;28;19931;-73
2021/10/10 14:25:07;;;;;;;;;;;;;;;;;;5113365;28;19924;-73
2021/10/10 14:27:33;;;;;;;;;;;;;;;;;;5113323;28;20324;-73
2021/10/10 14:30:00;;;;;;;;;;;;;;;;;;5113272;28;19927;-72
2021/10/10 14:32:26;;;;;;;;;;;;;;;;;;5113196;28;20293;-74
2021/10/10 14:34:54;;;;;;;;;;;;;;;;;;5113122;28;19924;-74
2021/10/10 14:37:20;;;;;;;;;;;;;;;;;;5113001;28;20389;-71
2021/10/10 14:39:51;;;;;;;;;;;;;;;;;;5113416;28;19930;-75
2021/10/10 14:42:28;;;;;;;;;;;;;;;;;;5112972;28;20022;-73
2021/10/10 14:45:04;;;;;;;;;;;;;;;;;;5112975;28;19924;-76
2021/10/10 14:50:15;;;;;;;;;;;;;;;;;;5112934;28;19919;-75
2021/10/10 14:52:41;;;;;;;;;;;;;;;;;;5113131;28;19930;-70
2021/10/10 14:55:07;;;;;;;;;;;;;;;;;;5112603;28;20278;-75
2021/10/10 14:57:35;;;;;;;;;;;;;;;;;;5112696;28;19923;-74
2021/10/10 15:00:05;;;;;;;;;;;;;;;;;;5112360;28;20209;-75
2021/10/10 15:02:31;;;;;;;;;;;;;;;;;;5112823;28;20396;-74
2021/10/10 15:05:01;;;;;;;;;;;;;;;;;;5112616;28;19938;-75
2021/10/10 15:07:27;;;;;;;;;;;;;;;;;;5112870;28;19974;-75
2021/10/10 15:09:54;;;;;;;;;;;;;;;;;;5113168;28;19928;-73
2021/10/10 15:12:20;;;;;;;;;;;;;;;;;;5112734;28;19924;-75
2021/10/10 15:14:46;;;;;;;;;;;;;;;;;;5113075;28;19927;-73
2021/10/10 15:17:13;;;;;;;;;;;;;;;;;;5112489;28;19931;-75
2021/10/10 15:19:39;;;;;;;;;;;;;;;;;;5113605;28;19927;-74
2021/10/10 15:22:05;;;;;;;;;;;;;;;;;;5115472;28;20018;-75
2021/10/10 15:24:32;;;;;;;;;;;;;;;;;;5112686;28;19931;-76
2021/10/10 15:26:58;;;;;;;;;;;;;;;;;;5112377;28;19984;-75
2021/10/10 15:29:24;;;;;;;;;;;;;;;;;;5112960;28;19931;-75
2021/10/10 15:31:51;;;;;;;;;;;;;;;;;;5112893;28;19924;-74
2021/10/10 15:34:17;;;;;;;;;;;;;;;;;;5112205;28;19928;-75
2021/10/10 15:36:43;;;;;;;;;;;;;;;;;;5112975;28;19931;-72
2021/10/10 15:39:10;;;;;;;;;;;;;;;;;;5112385;28;20377;-73
2021/10/10 15:41:36;;;;;;;;;;;;;;;;;;5112614;28;19924;-69
2021/10/10 15:44:09;;;;;;;;;;;;;;;;;;5112432;28;19924;-70
2021/10/10 15:46:35;;;;;;;;;;;;;;;;;;5112464;28;20439;-73
2021/10/10 15:49:01;;;;;;;;;;;;;;;;;;5112228;28;19924;-72
2021/10/10 15:51:27;;;;;;;;;;;;;;;;;;5112847;28;19924;-76
2021/10/10 15:53:54;;;;;;;;;;;;;;;;;;5112769;28;19946;-70
2021/10/10 15:56:20;;;;;;;;;;;;;;;;;;5111955;28;20450;-70
2021/10/10 15:58:46;;;;;;;;;;;;;;;;;;5112411;28;19928;-70
2021/10/10 16:01:13;;;;;;;;;;;;;;;;;;5115505;28;19924;-71
2021/10/10 16:03:39;;;;;;;;;;;;;;;;;;5116142;28;20401;-70
2021/10/10 16:06:06;;;;;;;;;;;;;;;;;;5116296;28;19993;-71
2021/10/10 16:08:33;;;;;;;;;;;;;;;;;;5116083;28;19938;-70
2021/10/10 16:10:59;;;;;;;;;;;;;;;;;;5115585;28;19977;-70
2021/10/10 16:13:26;;;;;;;;;;;;;;;;;;5116310;28;19924;-71
2021/10/10 16:15:52;;;;;;;;;;;;;;;;;;5115952;28;20396;-70
2021/10/10 16:18:18;;;;;;;;;;;;;;;;;;5115614;28;19931;-71
2021/10/10 16:20:45;;;;;;;;;;;;;;;;;;5116169;28;19930;-70
2021/10/10 16:23:11;;;;;;;;;;;;;;;;;;5115409;28;19924;-72
2021/10/10 16:25:37;;;;;;;;;;;;;;;;;;5116135;28;19927;-71
2021/10/10 16:28:04;;;;;;;;;;;;;;;;;;5115445;28;19923;-72
2021/10/10 16:30:30;;;;;;;;;;;;;;;;;;5115522;28;19924;-71
2021/10/10 16:32:59;;;;;;;;;;;;;;;;;;5115772;28;19927;-71
2021/10/10 16:35:36;;;;;;;;;;;;;;;;;;5115879;28;19924;-71
2021/10/10 16:38:13;;;;;;;;;;;;;;;;;;5115544;28;20026;-71
2021/10/10 16:40:55;;;;;;;;;;;;;;;;;;5115739;28;20022;-72
2021/10/10 16:43:24;;;;;;;;;;;;;;;;;;5115295;28;20062;-71
2021/10/10 16:45:51;;;;;;;;;;;;;;;;;;5115260;28;20373;-72
2021/10/10 16:48:17;;;;;;;;;;;;;;;;;;5113711;28;20196;-71
2021/10/10 16:50:43;;;;;;;;;;;;;;;;;;5115593;28;19932;-71